Portada
METAR-TAF:

METAR-TAF

Aeroports :

Aneityum, Vanuatu

latitud: 20-14-57S, longitud: 169-46-17E, altitud: 2 m

Observació

L'informe es va fer fa 22 hores i 34 minuts, a les 03:00 UTC
Vent 8 kt del Est
Temperatura 27°C
Humitat 74%
Pressió 1011 hPa
Visibilitat 10 km o més
Cel ennuvolat a una alçada de 2000 ft
xàfecs en les proximitats,

METAR: NVVA 170300Z 09008KT 9999 VCSH BKN020 27/22 Q1011

Hora: 12:34 (01:34 UTC)

Pronòstic

L'informe es va fer fa 2 hores i 34 minuts, a les 23:00 UTC
Pronòstic vàlid del 18 a les 00 UTC al 18 a les 24 UTC
Vent 10 kt del Est/Sud-Est
Visibilitat: 9000 m
Núvols disperses a una alçada de 2000 ft
Cel ennuvolat a una alçada de 4000 ft
Escasses núvols a una alçada de 1000 ft
Cel ennuvolat a una alçada de 1600 ft
Cel cobert a una alçada de 3800 ft
xàfecs de pluja,

TAF: NVVA 172300Z 1800/1824 11010KT 9999 SCT020 BKN040 INTER 1800/1806 9000 SHRA FEW010 BKN016 OVC038

Observacions i pronòstics meteorològics de més de 4000 aeroports (METAR i TAF).

Les estacions disponibles són els punts grocs i vermells al mapa.

Posi el ratolí al punt desitjat per veure el nom de l'estació.

Feu clic per veure les observacions i els pronòstics meteorològics.

Per canviar el mapa: feu clic els botons verds amb una creu de color negre per apropar; al botó verd amb un guió per allunyar la imatge; o en les fletxes verdes per a mapes adjacents.


METAR-TAF: